createdAt,value
2019-03-15T00:00:35.269Z,99622.88
2019-03-15T00:03:05.679Z,99624.97
2019-03-15T00:05:38.910Z,99625.36
2019-03-15T00:08:09.462Z,99633.48
2019-03-15T00:10:40.055Z,99633.68
2019-03-15T00:13:10.348Z,99638.83
2019-03-15T00:15:40.608Z,99641.03
2019-03-15T00:18:10.897Z,99645.38
2019-03-15T00:20:41.603Z,99641.23
2019-03-15T00:23:12.025Z,99650.52
2019-03-15T00:25:43.563Z,99648.31
2019-03-15T00:28:13.937Z,99649.32
2019-03-15T00:30:44.157Z,99654.66
2019-03-15T00:33:15.584Z,99655.63
2019-03-15T00:35:46.067Z,99647.92
2019-03-15T00:38:16.229Z,99646.28
2019-03-15T00:40:47.093Z,99647.56
2019-03-15T00:43:20.476Z,99650.70
2019-03-15T00:45:51.893Z,99657.91
2019-03-15T00:48:22.171Z,99657.30
2019-03-15T00:50:52.669Z,99655.98
2019-03-15T00:53:23.170Z,99669.48
2019-03-15T00:55:53.675Z,99660.70
2019-03-15T00:58:24.067Z,99668.09
2019-03-15T01:00:54.669Z,99661.47
2019-03-15T01:03:25.032Z,99669.06
2019-03-15T01:05:55.409Z,99676.42
2019-03-15T01:08:25.797Z,99683.27
2019-03-15T01:10:56.189Z,99689.39
2019-03-15T01:13:26.477Z,99685.88
2019-03-15T01:15:57.127Z,99683.27
2019-03-15T01:18:27.579Z,99686.21
2019-03-15T01:20:59.550Z,99677.62
2019-03-15T01:23:29.801Z,99695.55
2019-03-15T01:26:00.282Z,99684.09
2019-03-15T01:28:30.549Z,99695.05
2019-03-15T01:31:01.451Z,99687.87
2019-03-15T01:33:31.836Z,99684.40
2019-03-15T01:36:04.376Z,99680.06
2019-03-15T01:38:37.354Z,99691.48
2019-03-15T01:41:08.285Z,99688.84
2019-03-15T01:43:40.105Z,99682.73
2019-03-15T01:46:10.934Z,99686.68
2019-03-15T01:48:41.184Z,99682.73
2019-03-15T01:51:11.603Z,99678.86
2019-03-15T01:53:43.268Z,99682.92
2019-03-15T01:56:13.790Z,99688.45
2019-03-15T01:58:44.314Z,99686.31
2019-03-15T02:01:14.930Z,99692.22
2019-03-15T02:03:45.471Z,99682.08
2019-03-15T02:06:15.810Z,99691.86
2019-03-15T02:08:46.076Z,99701.07
2019-03-15T02:11:16.248Z,99699.89
2019-03-15T02:13:46.760Z,99691.58
2019-03-15T02:16:17.368Z,99700.39
2019-03-15T02:18:47.833Z,99701.67
2019-03-15T02:21:18.585Z,99697.37
2019-03-15T02:23:48.874Z,99698.25
2019-03-15T02:26:19.314Z,99700.00
2019-03-15T02:28:53.035Z,99703.62
2019-03-15T02:31:23.971Z,99699.24
2019-03-15T02:33:54.411Z,99710.63
2019-03-15T02:36:24.727Z,99708.88
2019-03-15T02:38:58.853Z,99715.45
2019-03-15T02:41:30.390Z,99714.70
2019-03-15T02:44:00.804Z,99711.58
2019-03-15T02:46:31.106Z,99711.67
2019-03-15T02:49:02.048Z,99710.33
2019-03-15T02:51:32.756Z,99717.36
2019-03-15T02:54:03.245Z,99712.98
2019-03-15T02:56:34.540Z,99714.20
2019-03-15T02:59:04.982Z,99712.46
2019-03-15T03:01:38.987Z,99725.88
2019-03-15T03:04:09.387Z,99730.28
2019-03-15T03:06:39.696Z,99731.00
2019-03-15T03:09:10.275Z,99732.15
2019-03-15T03:11:40.571Z,99722.27
2019-03-15T03:14:10.982Z,99720.34
2019-03-15T03:16:44.201Z,99728.34
2019-03-15T03:19:14.535Z,99720.98
2019-03-15T03:21:47.014Z,99728.88
2019-03-15T03:24:17.351Z,99731.19
2019-03-15T03:26:47.760Z,99738.09
2019-03-15T03:29:20.405Z,99732.76
2019-03-15T03:31:50.740Z,99737.48
2019-03-15T03:34:20.914Z,99738.77
2019-03-15T03:36:52.313Z,99739.12
2019-03-15T03:39:22.838Z,99749.16
2019-03-15T03:41:55.035Z,99747.84
2019-03-15T03:44:26.170Z,99746.95
2019-03-15T03:46:59.366Z,99760.43
2019-03-15T03:49:29.644Z,99756.87
2019-03-15T03:52:00.005Z,99761.21
2019-03-15T03:54:30.677Z,99758.05
2019-03-15T03:57:01.656Z,99757.65
2019-03-15T03:59:36.178Z,99756.87
2019-03-15T04:02:06.484Z,99752.84
2019-03-15T04:04:37.204Z,99750.57
2019-03-15T04:07:08.564Z,99753.70
2019-03-15T04:09:38.889Z,99748.79
2019-03-15T04:12:09.399Z,99748.36
2019-03-15T04:14:44.730Z,99754.88
2019-03-15T04:17:16.003Z,99747.83
2019-03-15T04:19:46.413Z,99758.89
2019-03-15T04:22:16.888Z,99750.84
2019-03-15T04:24:53.398Z,99758.55
2019-03-15T04:27:25.337Z,99770.03
2019-03-15T04:29:57.810Z,99775.19
2019-03-15T04:32:31.002Z,99773.37
2019-03-15T04:35:01.333Z,99778.72
2019-03-15T04:37:32.925Z,99776.55
2019-03-15T04:40:06.029Z,99779.11
2019-03-15T04:42:40.498Z,99786.19
2019-03-15T04:45:12.787Z,99784.88
2019-03-15T04:47:44.802Z,99778.72
2019-03-15T04:50:15.281Z,99779.11
2019-03-15T04:52:45.561Z,99783.62
2019-03-15T04:55:35.960Z,99780.06
2019-03-15T05:03:45.903Z,99793.08
2019-03-15T05:06:16.349Z,99796.53
2019-03-15T05:08:46.589Z,99801.20
2019-03-15T05:11:19.053Z,99804.26
2019-03-15T05:13:51.868Z,99799.78
2019-03-15T05:16:22.261Z,99796.79
2019-03-15T05:18:52.639Z,99800.02
2019-03-15T05:21:22.967Z,99801.63
2019-03-15T05:23:53.220Z,99790.67
2019-03-15T05:26:23.513Z,99793.73
2019-03-15T05:28:54.391Z,99794.08
2019-03-15T05:31:24.936Z,99791.09
2019-03-15T05:33:55.587Z,99790.73
2019-03-15T05:36:29.005Z,99791.17
2019-03-15T05:38:59.323Z,99785.05
2019-03-15T05:41:29.815Z,99782.48
2019-03-15T05:44:00.240Z,99784.37
2019-03-15T05:46:31.111Z,99788.88
2019-03-15T05:49:05.868Z,99793.58
2019-03-15T05:51:36.884Z,99790.45
2019-03-15T05:54:09.692Z,99786.79
2019-03-15T05:56:39.960Z,99783.73
2019-03-15T05:59:10.286Z,99783.62
2019-03-15T06:01:41.351Z,99789.78
2019-03-15T06:04:11.692Z,99775.72
2019-03-15T06:06:42.143Z,99779.67
2019-03-15T06:09:12.648Z,99779.53
2019-03-15T06:11:42.986Z,99773.80
2019-03-15T06:14:13.818Z,99764.44
2019-03-15T06:16:44.240Z,99763.48
2019-03-15T06:19:14.569Z,99758.02
2019-03-15T06:21:44.908Z,99754.45
2019-03-15T06:24:15.327Z,99757.94
2019-03-15T06:26:45.905Z,99761.05
2019-03-15T06:29:16.730Z,99756.89
2019-03-15T06:31:51.218Z,99765.45
2019-03-15T06:34:21.663Z,99770.19
2019-03-15T06:36:52.107Z,99767.00
2019-03-15T06:39:22.402Z,99750.39
2019-03-15T06:41:53.694Z,99756.97
2019-03-15T06:44:24.154Z,99760.65
2019-03-15T06:46:54.853Z,99762.28
2019-03-15T06:49:25.401Z,99752.98
2019-03-15T06:51:57.502Z,99744.63
2019-03-15T06:54:27.810Z,99750.66
2019-03-15T06:56:58.235Z,99740.43
2019-03-15T06:59:30.996Z,99744.86
2019-03-15T07:02:01.407Z,99737.34
2019-03-15T07:04:31.805Z,99738.49
2019-03-15T07:07:03.150Z,99737.38
2019-03-15T07:09:33.471Z,99734.41
2019-03-15T07:12:09.476Z,99736.48
2019-03-15T07:14:36.142Z,99733.21
2019-03-15T07:17:06.832Z,99726.95
2019-03-15T07:19:37.443Z,99721.80
2019-03-15T07:22:08.253Z,99720.86
2019-03-15T07:24:38.516Z,99726.89
2019-03-15T07:27:13.160Z,99732.59
2019-03-15T07:29:40.897Z,99723.60
2019-03-15T07:32:11.091Z,99717.10
2019-03-15T07:34:41.618Z,99709.63
2019-03-15T07:37:12.025Z,99705.95
2019-03-15T07:39:42.816Z,99709.49
2019-03-15T07:42:13.206Z,99713.24
2019-03-15T07:44:45.374Z,99720.27
2019-03-15T07:47:18.089Z,99717.97
2019-03-15T07:49:48.636Z,99714.81
2019-03-15T07:52:18.910Z,99711.23
2019-03-15T07:54:49.189Z,99706.96
2019-03-15T07:57:19.576Z,99701.63
2019-03-15T07:59:49.995Z,99696.36
2019-03-15T08:02:20.460Z,99701.10
2019-03-15T08:04:50.709Z,99697.84
2019-03-15T08:07:35.357Z,99697.52
2019-03-15T08:09:53.212Z,99697.58
2019-03-15T08:12:26.198Z,99693.72
2019-03-15T08:14:56.429Z,99698.07
2019-03-15T08:17:27.852Z,99694.73
2019-03-15T08:19:58.106Z,99688.56
2019-03-15T08:22:29.423Z,99688.25
2019-03-15T08:24:59.780Z,99687.66
2019-03-15T08:27:30.168Z,99685.07
2019-03-15T08:30:01.409Z,99697.06
2019-03-15T08:32:34.865Z,99683.56
2019-03-15T08:35:05.740Z,99694.69
2019-03-15T08:37:36.002Z,99704.92
2019-03-15T08:40:07.019Z,99694.63
2019-03-15T08:42:37.357Z,99688.44
2019-03-15T08:45:20.894Z,99685.07
2019-03-15T08:47:51.213Z,99685.25
2019-03-15T08:50:24.365Z,99687.61
2019-03-15T08:52:54.419Z,99677.73
2019-03-15T08:55:25.488Z,99680.41
2019-03-15T08:57:55.925Z,99684.86
2019-03-15T09:00:28.418Z,99690.77
2019-03-15T09:02:58.649Z,99692.84
2019-03-15T09:05:29.189Z,99694.18
2019-03-15T09:08:01.461Z,99680.70
2019-03-15T09:10:31.795Z,99677.89
2019-03-15T09:13:04.036Z,99679.91
2019-03-15T09:15:34.312Z,99680.72
2019-03-15T09:18:04.700Z,99677.77
2019-03-15T09:20:34.993Z,99667.48
2019-03-15T09:23:05.562Z,99659.97
2019-03-15T09:25:43.295Z,99659.14
2019-03-15T09:28:20.341Z,99670.45
2019-03-15T09:30:54.929Z,99670.41
2019-03-15T09:33:26.250Z,99666.83
2019-03-15T09:36:00.245Z,99663.83
2019-03-15T09:38:31.610Z,99668.27
2019-03-15T09:41:02.031Z,99661.52
2019-03-15T09:43:32.783Z,99653.99
2019-03-15T09:46:07.611Z,99651.36
2019-03-15T09:48:39.161Z,99650.41
2019-03-15T09:51:09.663Z,99644.81
2019-03-15T09:53:40.465Z,99638.94
2019-03-15T09:56:10.669Z,99628.58
2019-03-15T09:58:40.976Z,99607.55
2019-03-15T10:01:11.555Z,99601.06
2019-03-15T10:03:42.109Z,99594.80
2019-03-15T10:06:16.536Z,99595.99
2019-03-15T10:08:45.264Z,99590.30
2019-03-15T10:11:19.273Z,99584.73
2019-03-15T10:13:50.594Z,99581.20
2019-03-15T10:16:21.060Z,99586.30
2019-03-15T10:18:54.867Z,99582.53
2019-03-15T10:21:25.374Z,99574.41
2019-03-15T10:23:58.583Z,99577.05
2019-03-15T10:26:32.134Z,99561.94
2019-03-15T10:29:14.801Z,99559.27
2019-03-15T10:31:35.914Z,99555.91
2019-03-15T10:34:06.853Z,99551.28
2019-03-15T10:36:37.842Z,99550.51
2019-03-15T10:39:08.616Z,99537.53
2019-03-15T10:41:39.429Z,99529.32
2019-03-15T10:44:10.438Z,99527.56
2019-03-15T10:46:41.181Z,99522.16
2019-03-15T10:49:16.094Z,99516.94
2019-03-15T10:51:46.496Z,99508.06
2019-03-15T10:54:17.854Z,99511.37
2019-03-15T10:56:49.639Z,99496.38
2019-03-15T10:59:19.924Z,99496.77
2019-03-15T11:01:51.342Z,99486.61
2019-03-15T11:04:22.206Z,99487.05
2019-03-15T11:06:52.484Z,99479.40
2019-03-15T11:09:23.911Z,99477.73
2019-03-15T11:11:54.267Z,99474.80
2019-03-15T11:14:24.468Z,99479.89
2019-03-15T11:16:54.672Z,99472.58
2019-03-15T11:19:25.060Z,99456.41
2019-03-15T11:21:55.242Z,99446.99
2019-03-15T11:24:25.540Z,99442.00
2019-03-15T11:26:57.251Z,99438.04
2019-03-15T11:29:27.569Z,99429.80
2019-03-15T11:31:57.931Z,99419.60
2019-03-15T11:34:28.724Z,99424.69
2019-03-15T11:36:59.097Z,99421.59
2019-03-15T11:39:29.422Z,99418.40
2019-03-15T11:41:59.740Z,99408.88
2019-03-15T11:44:30.007Z,99413.08
2019-03-15T11:47:00.615Z,99407.49
2019-03-15T11:49:30.896Z,99396.12
2019-03-15T11:52:01.261Z,99391.64
2019-03-15T11:54:32.438Z,99391.12
2019-03-15T11:57:13.837Z,99381.88
2019-03-15T11:59:44.545Z,99372.11
2019-03-15T12:02:21.965Z,99374.16
2019-03-15T12:04:53.443Z,99354.69
2019-03-15T12:07:25.948Z,99346.59
2019-03-15T12:10:00.875Z,99359.75
2019-03-15T12:12:33.018Z,99352.05
2019-03-15T12:15:07.039Z,99351.72
2019-03-15T12:17:40.623Z,99353.33
2019-03-15T12:20:15.359Z,99333.67
2019-03-15T12:22:51.286Z,99333.83
2019-03-15T12:25:31.294Z,99344.86
2019-03-15T12:28:03.949Z,99347.01
2019-03-15T12:30:34.840Z,99344.30
2019-03-15T12:33:11.291Z,99348.70
2019-03-15T12:35:41.743Z,99345.98
2019-03-15T12:38:17.918Z,99347.88
2019-03-15T12:41:04.816Z,99363.37
2019-03-15T12:43:36.201Z,99348.16
2019-03-15T12:46:08.729Z,99333.65
2019-03-15T12:48:39.891Z,99344.18
2019-03-15T12:51:10.591Z,99335.70
2019-03-15T12:53:42.925Z,99336.41
2019-03-15T12:56:14.841Z,99319.74
2019-03-15T12:58:45.418Z,99304.08
2019-03-15T13:01:29.967Z,99305.97
2019-03-15T13:04:01.895Z,99315.56
2019-03-15T13:06:33.985Z,99304.02
2019-03-15T13:09:08.791Z,99291.44
2019-03-15T13:11:42.917Z,99294.75
2019-03-15T13:14:14.103Z,99289.14
2019-03-15T13:16:54.043Z,99295.00
2019-03-15T13:19:27.837Z,99284.16
2019-03-15T13:22:01.499Z,99267.02
2019-03-15T13:24:38.705Z,99260.22
2019-03-15T13:27:10.772Z,99256.75
2019-03-15T13:29:44.773Z,99248.39
2019-03-15T13:32:15.939Z,99242.01
2019-03-15T13:34:48.138Z,99243.50
2019-03-15T13:37:25.433Z,99240.31
2019-03-15T13:39:56.239Z,99238.59
2019-03-15T13:42:29.326Z,99229.30
2019-03-15T13:45:03.340Z,99224.63
2019-03-15T13:47:36.315Z,99219.53
2019-03-15T13:50:08.486Z,99226.19
2019-03-15T13:52:41.341Z,99231.04
2019-03-15T13:55:12.145Z,99265.59
2019-03-15T13:57:42.554Z,99245.63
2019-03-15T14:00:15.385Z,99233.94
2019-03-15T14:02:45.866Z,99230.20
2019-03-15T14:05:16.292Z,99236.75
2019-03-15T14:07:46.791Z,99241.13
2019-03-15T14:10:17.418Z,99245.06
2019-03-15T14:12:50.176Z,99246.86
2019-03-15T14:15:24.133Z,99234.84
2019-03-15T14:17:57.803Z,99239.97
2019-03-15T14:20:28.233Z,99245.95
2019-03-15T14:23:02.666Z,99225.81
2019-03-15T14:25:34.239Z,99212.76
2019-03-15T14:28:13.230Z,99223.66
2019-03-15T14:30:43.489Z,99221.09
2019-03-15T14:33:13.970Z,99214.68
2019-03-15T14:35:47.560Z,99212.95
2019-03-15T14:38:19.946Z,99213.12
2019-03-15T14:40:53.649Z,99221.01
2019-03-15T14:43:31.093Z,99228.58
2019-03-15T14:46:01.912Z,99219.62
2019-03-15T14:48:37.887Z,99226.55
2019-03-15T14:51:11.668Z,99222.87
2019-03-15T14:53:42.633Z,99210.63
2019-03-15T14:56:18.072Z,99259.95
2019-03-15T14:58:57.111Z,99216.99
2019-03-15T15:01:29.209Z,99239.18
2019-03-15T15:04:00.434Z,99220.58
2019-03-15T15:06:31.441Z,99238.95
2019-03-15T15:09:02.618Z,99228.58
2019-03-15T15:11:34.408Z,99241.27
2019-03-15T15:14:05.470Z,99239.84
2019-03-15T15:16:36.261Z,99253.42
2019-03-15T15:19:07.255Z,99255.92
2019-03-15T15:21:37.710Z,99257.17
2019-03-15T15:24:12.219Z,99269.28
2019-03-15T15:26:44.280Z,99248.97
2019-03-15T15:29:17.753Z,99259.03
2019-03-15T15:31:48.425Z,99255.70
2019-03-15T15:34:18.763Z,99256.70
2019-03-15T15:36:49.613Z,99267.72
2019-03-15T15:39:19.897Z,99272.25
2019-03-15T15:41:53.353Z,99263.57
2019-03-15T15:44:27.130Z,99261.94
2019-03-15T15:47:02.173Z,99264.98
2019-03-15T15:49:32.825Z,99268.09
2019-03-15T15:52:06.040Z,99268.25
2019-03-15T15:54:36.278Z,99274.02
2019-03-15T15:57:07.041Z,99269.59
2019-03-15T15:59:37.525Z,99275.74
2019-03-15T16:02:13.117Z,99267.30
2019-03-15T16:04:46.917Z,99287.89
2019-03-15T16:07:17.446Z,99288.92
2019-03-15T16:09:47.923Z,99289.20
2019-03-15T16:12:18.194Z,99302.08
2019-03-15T16:14:51.452Z,99301.95
2019-03-15T16:17:25.168Z,99288.64
2019-03-15T16:20:07.123Z,99296.43
2019-03-15T16:22:37.793Z,99307.72
2019-03-15T16:25:08.115Z,99298.52
2019-03-15T16:27:38.727Z,99284.56
2019-03-15T16:30:15.996Z,99291.27
2019-03-15T16:32:46.545Z,99300.40
2019-03-15T16:35:17.265Z,99317.58
2019-03-15T16:37:48.663Z,99319.23
2019-03-15T16:40:19.303Z,99324.27
2019-03-15T16:42:52.641Z,99320.44
2019-03-15T16:45:23.222Z,99325.08
2019-03-15T16:47:53.971Z,99319.45
2019-03-15T16:50:24.518Z,99326.67
2019-03-15T16:52:54.961Z,99332.45
2019-03-15T16:55:25.531Z,99329.36
2019-03-15T16:57:56.149Z,99333.55
2019-03-15T17:00:26.617Z,99346.66
2019-03-15T17:02:58.589Z,99335.28
2019-03-15T17:05:28.832Z,99329.80
2019-03-15T17:07:59.485Z,99339.59
2019-03-15T17:10:31.619Z,99357.50
2019-03-15T17:13:02.180Z,99376.37
2019-03-15T17:15:32.599Z,99370.36
2019-03-15T17:18:03.145Z,99379.56
2019-03-15T17:20:33.531Z,99398.12
2019-03-15T17:23:03.955Z,99379.31
2019-03-15T17:25:34.191Z,99403.39
2019-03-15T17:28:04.419Z,99411.73
2019-03-15T17:30:35.686Z,99407.52
2019-03-15T17:33:06.406Z,99426.66
2019-03-15T17:35:38.042Z,99425.84
2019-03-15T17:38:11.222Z,99457.74
2019-03-15T17:40:44.751Z,99456.40
2019-03-15T17:43:19.577Z,99439.14
2019-03-15T17:45:49.838Z,99457.26
2019-03-15T17:48:20.990Z,99460.66
2019-03-15T17:50:51.711Z,99478.52
2019-03-15T17:53:24.419Z,99478.80
2019-03-15T17:55:57.925Z,99489.63
2019-03-15T17:58:31.862Z,99478.41
2019-03-15T18:01:02.160Z,99508.12
2019-03-15T18:03:32.718Z,99486.27
2019-03-15T18:06:02.925Z,99493.11
2019-03-15T18:08:36.152Z,99519.70
2019-03-15T18:11:06.591Z,99514.94
2019-03-15T18:13:40.440Z,99514.76
2019-03-15T18:16:10.693Z,99512.44
2019-03-15T18:18:40.965Z,99514.41
2019-03-15T18:21:12.134Z,99535.86
2019-03-15T18:23:42.562Z,99533.69
2019-03-15T18:26:15.445Z,99529.25
2019-03-15T18:28:48.505Z,99543.44
2019-03-15T18:31:18.658Z,99551.01
2019-03-15T18:33:48.849Z,99553.41
2019-03-15T18:36:19.217Z,99556.10
2019-03-15T18:38:53.397Z,99573.64
2019-03-15T18:41:23.728Z,99580.91
2019-03-15T18:43:55.497Z,99574.41
2019-03-15T18:46:25.744Z,99598.78
2019-03-15T18:48:55.980Z,99586.09
2019-03-15T18:51:26.348Z,99595.42
2019-03-15T18:53:58.572Z,99582.92
2019-03-15T18:56:29.415Z,99589.52
2019-03-15T18:58:59.729Z,99589.68
2019-03-15T19:01:29.964Z,99610.39
2019-03-15T19:04:00.467Z,99617.53
2019-03-15T19:06:30.669Z,99632.55
2019-03-15T19:09:01.667Z,99640.38
2019-03-15T19:11:33.601Z,99629.77
2019-03-15T19:14:04.151Z,99630.67
2019-03-15T19:16:34.950Z,99640.77
2019-03-15T19:19:05.229Z,99632.11
2019-03-15T19:21:35.554Z,99638.36
2019-03-15T19:24:05.721Z,99641.59
2019-03-15T19:26:35.863Z,99658.02
2019-03-15T19:29:06.176Z,99651.93
2019-03-15T19:31:36.501Z,99647.66
2019-03-15T19:34:07.931Z,99656.58
2019-03-15T19:36:39.385Z,99652.30
2019-03-15T19:39:09.928Z,99672.72
2019-03-15T19:41:43.238Z,99677.63
2019-03-15T19:44:16.667Z,99672.52
2019-03-15T19:46:47.117Z,99681.75
2019-03-15T19:49:17.451Z,99683.91
2019-03-15T19:51:47.970Z,99695.73
2019-03-15T19:54:19.374Z,99694.88
2019-03-15T19:56:49.559Z,99696.53
2019-03-15T19:59:19.950Z,99717.89
2019-03-15T20:01:50.253Z,99719.70
2019-03-15T20:04:20.474Z,99726.02
2019-03-15T20:06:52.873Z,99736.66
2019-03-15T20:09:23.190Z,99753.44
2019-03-15T20:11:53.322Z,99757.00
2019-03-15T20:14:23.486Z,99755.92
2019-03-15T20:16:53.755Z,99753.61
2019-03-15T20:19:24.053Z,99749.23
2019-03-15T20:22:02.919Z,99754.18
2019-03-15T20:24:36.696Z,99755.08
2019-03-15T20:27:06.333Z,99769.84
2019-03-15T20:29:37.573Z,99778.16
2019-03-15T20:32:08.355Z,99791.09
2019-03-15T20:34:40.424Z,99769.95
2019-03-15T20:37:12.345Z,99791.95
2019-03-15T20:39:42.574Z,99798.24
2019-03-15T20:42:12.772Z,99801.81
2019-03-15T20:44:43.721Z,99802.78
2019-03-15T20:47:15.610Z,99806.41
2019-03-15T20:49:49.470Z,99801.52
2019-03-15T20:52:21.428Z,99807.34
2019-03-15T20:54:51.878Z,99812.61
2019-03-15T20:57:22.232Z,99813.05
2019-03-15T20:59:52.559Z,99816.66
2019-03-15T21:02:25.452Z,99816.31
2019-03-15T21:04:55.878Z,99822.52
2019-03-15T21:07:26.039Z,99811.13
2019-03-15T21:09:56.341Z,99827.41
2019-03-15T21:12:26.460Z,99826.25
2019-03-15T21:14:56.657Z,99847.88
2019-03-15T21:17:26.935Z,99849.20
2019-03-15T21:20:01.570Z,99851.83
2019-03-15T21:22:30.424Z,99851.48
2019-03-15T21:25:00.650Z,99866.34
2019-03-15T21:27:30.970Z,99867.80
2019-03-15T21:30:01.208Z,99869.13
2019-03-15T21:32:31.587Z,99880.83
2019-03-15T21:35:03.549Z,99881.80
2019-03-15T21:37:34.834Z,99887.11
2019-03-15T21:40:05.159Z,99893.55
2019-03-15T21:42:39.146Z,99893.66
2019-03-15T21:45:10.368Z,99888.73
2019-03-15T21:47:40.585Z,99897.00
2019-03-15T21:50:12.447Z,99897.34
2019-03-15T21:52:42.640Z,99896.53
2019-03-15T21:55:12.914Z,99893.97
2019-03-15T21:57:43.110Z,99905.83
2019-03-15T22:00:14.230Z,99921.42
2019-03-15T22:02:48.845Z,99908.16
2019-03-15T22:05:19.881Z,99916.11
2019-03-15T22:07:49.990Z,99915.80
2019-03-15T22:10:20.169Z,99926.23
2019-03-15T22:12:51.719Z,99921.85
2019-03-15T22:15:24.416Z,99923.17
2019-03-15T22:17:54.597Z,99927.70
2019-03-15T22:20:29.222Z,99934.86
2019-03-15T22:22:59.305Z,99928.42
2019-03-15T22:25:30.188Z,99934.55
2019-03-15T22:28:01.076Z,99929.81
2019-03-15T22:30:34.003Z,99933.41
2019-03-15T22:33:04.284Z,99945.66
2019-03-15T22:35:36.633Z,99948.66
2019-03-15T22:38:07.237Z,99932.98
2019-03-15T22:40:37.609Z,99946.59
2019-03-15T22:43:07.985Z,99962.50
2019-03-15T22:45:38.135Z,99953.20
2019-03-15T22:48:08.278Z,99959.62
2019-03-15T22:50:41.939Z,99956.98
2019-03-15T22:53:12.077Z,99948.30
2019-03-15T22:55:42.432Z,99941.14
2019-03-15T22:58:12.674Z,99962.26
2019-03-15T23:00:43.333Z,99964.00
2019-03-15T23:03:15.252Z,99974.48
2019-03-15T23:05:47.787Z,99989.33
2019-03-15T23:08:17.692Z,99990.72
2019-03-15T23:10:50.374Z,99986.27
2019-03-15T23:13:20.607Z,99977.44
2019-03-15T23:15:50.784Z,99982.31
2019-03-15T23:18:20.988Z,99991.90
2019-03-15T23:20:52.086Z,99994.96
2019-03-15T23:23:24.403Z,99997.77
2019-03-15T23:25:54.577Z,100003.97
2019-03-15T23:28:24.898Z,100015.53
2019-03-15T23:30:55.187Z,100016.89
2019-03-15T23:33:25.476Z,100016.95
2019-03-15T23:35:58.565Z,100025.35
2019-03-15T23:38:29.152Z,100023.70
2019-03-15T23:40:59.685Z,100020.61
2019-03-15T23:43:30.067Z,100019.81
2019-03-15T23:46:00.471Z,100031.83
2019-03-15T23:48:30.756Z,100030.57
2019-03-15T23:51:01.248Z,100030.97
2019-03-15T23:53:31.556Z,100027.57
2019-03-15T23:56:02.025Z,100030.27
2019-03-15T23:58:32.310Z,100034.13
